sensor_id;sensor_type;location;lat;lon;timestamp;P1;durP1;ratioP1;P2;durP2;ratioP2
4652;SDS011;9900;48.738;9.306;2023-03-30T00:01:12;10.80;;;3.87;;
4652;SDS011;9900;48.738;9.306;2023-03-30T00:03:45;9.47;;;3.50;;
4652;SDS011;9900;48.738;9.306;2023-03-30T00:06:15;6.07;;;3.37;;
4652;SDS011;9900;48.738;9.306;2023-03-30T00:08:48;9.07;;;3.57;;
4652;SDS011;9900;48.738;9.306;2023-03-30T00:11:19;9.93;;;3.17;;
4652;SDS011;9900;48.738;9.306;2023-03-30T00:13:49;9.30;;;3.40;;
4652;SDS011;9900;48.738;9.306;2023-03-30T00:16:19;10.50;;;4.50;;
4652;SDS011;9900;48.738;9.306;2023-03-30T00:18:49;4.43;;;2.93;;
4652;SDS011;9900;48.738;9.306;2023-03-30T00:21:19;10.93;;;4.00;;
4652;SDS011;9900;48.738;9.306;2023-03-30T00:23:48;6.93;;;3.93;;
4652;SDS011;9900;48.738;9.306;2023-03-30T00:26:18;6.00;;;2.93;;
4652;SDS011;9900;48.738;9.306;2023-03-30T00:28:47;7.07;;;3.20;;
4652;SDS011;9900;48.738;9.306;2023-03-30T00:31:16;6.03;;;3.43;;
4652;SDS011;9900;48.738;9.306;2023-03-30T00:33:44;7.23;;;4.53;;
4652;SDS011;9900;48.738;9.306;2023-03-30T00:36:15;11.20;;;3.60;;
4652;SDS011;9900;48.738;9.306;2023-03-30T00:38:44;8.03;;;3.53;;
4652;SDS011;9900;48.738;9.306;2023-03-30T00:41:14;7.93;;;3.70;;
4652;SDS011;9900;48.738;9.306;2023-03-30T00:43:54;8.30;;;3.40;;
4652;SDS011;9900;48.738;9.306;2023-03-30T00:46:23;10.10;;;4.30;;
4652;SDS011;9900;48.738;9.306;2023-03-30T00:48:52;9.40;;;3.83;;
4652;SDS011;9900;48.738;9.306;2023-03-30T00:51:25;14.67;;;3.73;;
4652;SDS011;9900;48.738;9.306;2023-03-30T00:53:55;11.57;;;3.00;;
4652;SDS011;9900;48.738;9.306;2023-03-30T00:56:28;10.90;;;3.80;;
4652;SDS011;9900;48.738;9.306;2023-03-30T00:58:57;9.37;;;3.77;;
4652;SDS011;9900;48.738;9.306;2023-03-30T01:01:27;7.33;;;2.77;;
4652;SDS011;9900;48.738;9.306;2023-03-30T01:03:57;7.67;;;3.43;;
4652;SDS011;9900;48.738;9.306;2023-03-30T01:06:29;9.93;;;3.20;;
4652;SDS011;9900;48.738;9.306;2023-03-30T01:08:58;7.67;;;3.63;;
4652;SDS011;9900;48.738;9.306;2023-03-30T01:11:27;6.07;;;3.90;;
4652;SDS011;9900;48.738;9.306;2023-03-30T01:13:56;8.93;;;3.23;;
4652;SDS011;9900;48.738;9.306;2023-03-30T01:16:27;8.73;;;3.40;;
4652;SDS011;9900;48.738;9.306;2023-03-30T01:19:04;11.57;;;3.70;;
4652;SDS011;9900;48.738;9.306;2023-03-30T01:21:49;6.70;;;2.97;;
4652;SDS011;9900;48.738;9.306;2023-03-30T01:24:45;8.60;;;3.40;;
4652;SDS011;9900;48.738;9.306;2023-03-30T01:27:25;10.00;;;4.27;;
4652;SDS011;9900;48.738;9.306;2023-03-30T01:30:13;8.87;;;3.57;;
4652;SDS011;9900;48.738;9.306;2023-03-30T01:32:56;15.83;;;3.97;;
4652;SDS011;9900;48.738;9.306;2023-03-30T01:35:44;7.97;;;3.63;;
4652;SDS011;9900;48.738;9.306;2023-03-30T01:38:42;12.60;;;3.90;;
4652;SDS011;9900;48.738;9.306;2023-03-30T01:41:30;10.23;;;3.93;;
4652;SDS011;9900;48.738;9.306;2023-03-30T01:44:05;14.00;;;3.77;;
4652;SDS011;9900;48.738;9.306;2023-03-30T01:46:37;5.60;;;3.83;;
4652;SDS011;9900;48.738;9.306;2023-03-30T01:49:11;6.93;;;3.57;;
4652;SDS011;9900;48.738;9.306;2023-03-30T01:51:43;8.93;;;4.10;;
4652;SDS011;9900;48.738;9.306;2023-03-30T01:54:16;7.70;;;3.93;;
4652;SDS011;9900;48.738;9.306;2023-03-30T01:56:48;9.60;;;3.40;;
4652;SDS011;9900;48.738;9.306;2023-03-30T01:59:19;10.73;;;3.93;;
4652;SDS011;9900;48.738;9.306;2023-03-30T02:01:52;10.00;;;3.27;;
4652;SDS011;9900;48.738;9.306;2023-03-30T02:04:26;9.33;;;3.10;;
4652;SDS011;9900;48.738;9.306;2023-03-30T02:06:58;8.80;;;3.20;;
4652;SDS011;9900;48.738;9.306;2023-03-30T02:09:29;12.27;;;3.00;;
4652;SDS011;9900;48.738;9.306;2023-03-30T02:11:59;10.47;;;3.70;;
4652;SDS011;9900;48.738;9.306;2023-03-30T02:14:29;7.57;;;3.03;;
4652;SDS011;9900;48.738;9.306;2023-03-30T02:17:00;14.70;;;3.13;;
4652;SDS011;9900;48.738;9.306;2023-03-30T02:19:31;12.43;;;3.77;;
4652;SDS011;9900;48.738;9.306;2023-03-30T02:22:00;6.67;;;3.37;;
4652;SDS011;9900;48.738;9.306;2023-03-30T02:24:29;12.73;;;4.17;;
4652;SDS011;9900;48.738;9.306;2023-03-30T02:26:58;13.83;;;4.00;;
4652;SDS011;9900;48.738;9.306;2023-03-30T02:29:28;10.33;;;4.43;;
4652;SDS011;9900;48.738;9.306;2023-03-30T02:31:57;16.43;;;3.97;;
4652;SDS011;9900;48.738;9.306;2023-03-30T02:34:35;11.43;;;4.30;;
4652;SDS011;9900;48.738;9.306;2023-03-30T02:37:16;15.83;;;3.87;;
4652;SDS011;9900;48.738;9.306;2023-03-30T02:39:55;9.70;;;3.97;;
4652;SDS011;9900;48.738;9.306;2023-03-30T02:42:43;13.97;;;4.20;;
4652;SDS011;9900;48.738;9.306;2023-03-30T02:45:20;11.60;;;4.27;;
4652;SDS011;9900;48.738;9.306;2023-03-30T02:47:57;9.70;;;3.90;;
4652;SDS011;9900;48.738;9.306;2023-03-30T02:50:37;9.50;;;4.03;;
4652;SDS011;9900;48.738;9.306;2023-03-30T02:53:11;11.47;;;4.03;;
4652;SDS011;9900;48.738;9.306;2023-03-30T02:55:44;12.83;;;4.67;;
4652;SDS011;9900;48.738;9.306;2023-03-30T02:58:18;8.33;;;3.73;;
4652;SDS011;9900;48.738;9.306;2023-03-30T03:00:51;9.77;;;4.23;;
4652;SDS011;9900;48.738;9.306;2023-03-30T03:03:25;11.30;;;3.80;;
4652;SDS011;9900;48.738;9.306;2023-03-30T03:05:55;8.27;;;3.90;;
4652;SDS011;9900;48.738;9.306;2023-03-30T03:08:29;7.13;;;4.00;;
4652;SDS011;9900;48.738;9.306;2023-03-30T03:11:01;12.93;;;4.80;;
4652;SDS011;9900;48.738;9.306;2023-03-30T03:13:31;11.57;;;3.80;;
4652;SDS011;9900;48.738;9.306;2023-03-30T03:16:03;13.37;;;4.87;;
4652;SDS011;9900;48.738;9.306;2023-03-30T03:18:32;11.67;;;3.70;;
4652;SDS011;9900;48.738;9.306;2023-03-30T03:21:03;11.50;;;4.00;;
4652;SDS011;9900;48.738;9.306;2023-03-30T03:23:32;15.87;;;4.53;;
4652;SDS011;9900;48.738;9.306;2023-03-30T03:26:01;15.70;;;4.53;;
4652;SDS011;9900;48.738;9.306;2023-03-30T03:28:32;18.50;;;4.90;;
4652;SDS011;9900;48.738;9.306;2023-03-30T03:31:01;10.90;;;4.27;;
4652;SDS011;9900;48.738;9.306;2023-03-30T03:33:30;8.83;;;3.47;;
4652;SDS011;9900;48.738;9.306;2023-03-30T03:35:59;11.20;;;3.53;;
4652;SDS011;9900;48.738;9.306;2023-03-30T03:38:28;17.00;;;3.47;;
4652;SDS011;9900;48.738;9.306;2023-03-30T03:40:57;13.10;;;4.40;;
4652;SDS011;9900;48.738;9.306;2023-03-30T03:43:26;16.40;;;3.30;;
4652;SDS011;9900;48.738;9.306;2023-03-30T03:45:56;6.30;;;3.13;;
4652;SDS011;9900;48.738;9.306;2023-03-30T03:48:25;17.10;;;3.40;;
4652;SDS011;9900;48.738;9.306;2023-03-30T03:50:54;16.03;;;4.10;;
4652;SDS011;9900;48.738;9.306;2023-03-30T03:53:25;9.67;;;3.07;;
4652;SDS011;9900;48.738;9.306;2023-03-30T03:55:54;17.30;;;4.07;;
4652;SDS011;9900;48.738;9.306;2023-03-30T03:58:23;18.37;;;3.43;;
4652;SDS011;9900;48.738;9.306;2023-03-30T04:00:57;10.70;;;4.00;;
4652;SDS011;9900;48.738;9.306;2023-03-30T04:03:27;16.83;;;3.87;;
4652;SDS011;9900;48.738;9.306;2023-03-30T04:05:59;14.57;;;3.83;;
4652;SDS011;9900;48.738;9.306;2023-03-30T04:08:28;17.37;;;3.27;;
4652;SDS011;9900;48.738;9.306;2023-03-30T04:11:03;13.63;;;3.13;;
4652;SDS011;9900;48.738;9.306;2023-03-30T04:13:34;12.43;;;3.60;;
4652;SDS011;9900;48.738;9.306;2023-03-30T04:16:04;18.43;;;3.93;;
4652;SDS011;9900;48.738;9.306;2023-03-30T04:18:34;19.30;;;4.00;;
4652;SDS011;9900;48.738;9.306;2023-03-30T04:21:04;9.63;;;4.03;;
4652;SDS011;9900;48.738;9.306;2023-03-30T04:23:33;16.50;;;4.90;;
4652;SDS011;9900;48.738;9.306;2023-03-30T04:26:03;16.30;;;4.03;;
4652;SDS011;9900;48.738;9.306;2023-03-30T04:28:33;11.50;;;3.53;;
4652;SDS011;9900;48.738;9.306;2023-03-30T04:31:03;14.20;;;4.00;;
4652;SDS011;9900;48.738;9.306;2023-03-30T04:33:36;12.53;;;4.20;;
4652;SDS011;9900;48.738;9.306;2023-03-30T04:36:14;19.90;;;4.27;;
4652;SDS011;9900;48.738;9.306;2023-03-30T04:38:45;12.23;;;4.33;;
4652;SDS011;9900;48.738;9.306;2023-03-30T04:41:28;20.07;;;4.23;;
4652;SDS011;9900;48.738;9.306;2023-03-30T04:44:00;12.43;;;4.17;;
4652;SDS011;9900;48.738;9.306;2023-03-30T04:46:31;9.50;;;3.67;;
4652;SDS011;9900;48.738;9.306;2023-03-30T04:49:00;12.83;;;3.70;;
4652;SDS011;9900;48.738;9.306;2023-03-30T04:51:29;18.77;;;3.90;;
4652;SDS011;9900;48.738;9.306;2023-03-30T04:53:57;17.57;;;4.53;;
4652;SDS011;9900;48.738;9.306;2023-03-30T04:56:26;15.50;;;4.00;;
4652;SDS011;9900;48.738;9.306;2023-03-30T04:58:55;10.97;;;3.60;;
4652;SDS011;9900;48.738;9.306;2023-03-30T05:01:24;14.87;;;4.10;;
4652;SDS011;9900;48.738;9.306;2023-03-30T05:03:54;18.77;;;4.10;;
4652;SDS011;9900;48.738;9.306;2023-03-30T05:06:22;23.17;;;4.40;;
4652;SDS011;9900;48.738;9.306;2023-03-30T05:08:51;18.70;;;3.67;;
4652;SDS011;9900;48.738;9.306;2023-03-30T05:11:20;13.23;;;4.10;;
4652;SDS011;9900;48.738;9.306;2023-03-30T05:13:49;18.90;;;5.17;;
4652;SDS011;9900;48.738;9.306;2023-03-30T05:16:18;20.07;;;4.47;;
4652;SDS011;9900;48.738;9.306;2023-03-30T05:18:48;13.27;;;4.83;;
4652;SDS011;9900;48.738;9.306;2023-03-30T05:21:19;18.23;;;4.00;;
4652;SDS011;9900;48.738;9.306;2023-03-30T05:23:48;13.47;;;4.50;;
4652;SDS011;9900;48.738;9.306;2023-03-30T05:26:17;13.37;;;4.37;;
4652;SDS011;9900;48.738;9.306;2023-03-30T05:28:45;12.47;;;4.70;;
4652;SDS011;9900;48.738;9.306;2023-03-30T05:31:14;16.73;;;5.30;;
4652;SDS011;9900;48.738;9.306;2023-03-30T05:33:43;15.57;;;5.20;;
4652;SDS011;9900;48.738;9.306;2023-03-30T05:36:12;25.07;;;4.73;;
4652;SDS011;9900;48.738;9.306;2023-03-30T05:38:42;23.43;;;5.00;;
4652;SDS011;9900;48.738;9.306;2023-03-30T05:41:11;20.87;;;4.60;;
4652;SDS011;9900;48.738;9.306;2023-03-30T05:43:40;23.88;;;6.10;;
4652;SDS011;9900;48.738;9.306;2023-03-30T05:46:08;30.20;;;5.03;;
4652;SDS011;9900;48.738;9.306;2023-03-30T05:48:37;22.47;;;5.40;;
4652;SDS011;9900;48.738;9.306;2023-03-30T05:51:06;20.90;;;5.40;;
4652;SDS011;9900;48.738;9.306;2023-03-30T05:53:35;16.20;;;4.87;;
4652;SDS011;9900;48.738;9.306;2023-03-30T05:56:05;13.77;;;4.10;;
4652;SDS011;9900;48.738;9.306;2023-03-30T05:58:34;18.60;;;4.40;;
4652;SDS011;9900;48.738;9.306;2023-03-30T06:01:03;21.70;;;5.60;;
4652;SDS011;9900;48.738;9.306;2023-03-30T06:03:32;20.60;;;5.30;;
4652;SDS011;9900;48.738;9.306;2023-03-30T06:06:01;12.13;;;4.37;;
4652;SDS011;9900;48.738;9.306;2023-03-30T06:08:31;14.83;;;4.47;;
4652;SDS011;9900;48.738;9.306;2023-03-30T06:10:59;22.57;;;4.83;;
4652;SDS011;9900;48.738;9.306;2023-03-30T06:13:30;20.40;;;4.47;;
4652;SDS011;9900;48.738;9.306;2023-03-30T06:15:59;13.63;;;4.43;;
4652;SDS011;9900;48.738;9.306;2023-03-30T06:18:29;19.77;;;4.10;;
4652;SDS011;9900;48.738;9.306;2023-03-30T06:20:58;14.50;;;4.63;;
4652;SDS011;9900;48.738;9.306;2023-03-30T06:23:29;18.20;;;4.90;;
4652;SDS011;9900;48.738;9.306;2023-03-30T06:25:57;16.80;;;3.80;;
4652;SDS011;9900;48.738;9.306;2023-03-30T06:28:27;17.00;;;4.27;;
4652;SDS011;9900;48.738;9.306;2023-03-30T06:30:57;14.10;;;5.10;;
4652;SDS011;9900;48.738;9.306;2023-03-30T06:33:27;14.50;;;4.43;;
4652;SDS011;9900;48.738;9.306;2023-03-30T06:35:57;16.27;;;4.43;;
4652;SDS011;9900;48.738;9.306;2023-03-30T06:38:26;18.30;;;4.23;;
4652;SDS011;9900;48.738;9.306;2023-03-30T06:40:55;13.57;;;4.67;;
4652;SDS011;9900;48.738;9.306;2023-03-30T06:43:24;16.10;;;4.67;;
4652;SDS011;9900;48.738;9.306;2023-03-30T06:45:53;19.40;;;5.30;;
4652;SDS011;9900;48.738;9.306;2023-03-30T06:48:25;23.80;;;5.60;;
4652;SDS011;9900;48.738;9.306;2023-03-30T06:50:53;23.53;;;6.93;;
4652;SDS011;9900;48.738;9.306;2023-03-30T06:53:22;15.87;;;7.47;;
4652;SDS011;9900;48.738;9.306;2023-03-30T06:55:52;21.00;;;7.00;;
4652;SDS011;9900;48.738;9.306;2023-03-30T06:58:21;22.47;;;6.30;;
4652;SDS011;9900;48.738;9.306;2023-03-30T07:00:50;22.77;;;5.97;;
4652;SDS011;9900;48.738;9.306;2023-03-30T07:03:19;25.63;;;5.30;;
4652;SDS011;9900;48.738;9.306;2023-03-30T07:05:49;17.83;;;4.47;;
4652;SDS011;9900;48.738;9.306;2023-03-30T07:08:19;12.60;;;5.03;;
4652;SDS011;9900;48.738;9.306;2023-03-30T07:10:48;20.33;;;4.67;;
4652;SDS011;9900;48.738;9.306;2023-03-30T07:13:17;22.23;;;4.03;;
4652;SDS011;9900;48.738;9.306;2023-03-30T07:15:46;18.27;;;3.73;;
4652;SDS011;9900;48.738;9.306;2023-03-30T07:18:15;17.13;;;3.60;;
4652;SDS011;9900;48.738;9.306;2023-03-30T07:20:44;24.57;;;3.87;;
4652;SDS011;9900;48.738;9.306;2023-03-30T07:23:14;20.70;;;4.13;;
4652;SDS011;9900;48.738;9.306;2023-03-30T07:25:43;13.20;;;3.10;;
4652;SDS011;9900;48.738;9.306;2023-03-30T07:28:12;18.50;;;3.33;;
4652;SDS011;9900;48.738;9.306;2023-03-30T07:30:41;12.30;;;3.30;;
4652;SDS011;9900;48.738;9.306;2023-03-30T07:33:10;19.60;;;4.60;;
4652;SDS011;9900;48.738;9.306;2023-03-30T07:35:41;19.00;;;3.97;;
4652;SDS011;9900;48.738;9.306;2023-03-30T07:38:11;12.63;;;3.50;;
4652;SDS011;9900;48.738;9.306;2023-03-30T07:40:41;17.73;;;3.80;;
4652;SDS011;9900;48.738;9.306;2023-03-30T07:43:10;14.53;;;3.03;;
4652;SDS011;9900;48.738;9.306;2023-03-30T07:45:39;11.70;;;3.47;;
4652;SDS011;9900;48.738;9.306;2023-03-30T07:48:07;11.93;;;3.50;;
4652;SDS011;9900;48.738;9.306;2023-03-30T07:50:36;14.30;;;3.57;;
4652;SDS011;9900;48.738;9.306;2023-03-30T07:53:05;18.10;;;3.70;;
4652;SDS011;9900;48.738;9.306;2023-03-30T07:55:33;14.30;;;3.80;;
4652;SDS011;9900;48.738;9.306;2023-03-30T07:58:05;16.87;;;4.90;;
4652;SDS011;9900;48.738;9.306;2023-03-30T08:00:34;19.77;;;4.30;;
4652;SDS011;9900;48.738;9.306;2023-03-30T08:03:02;12.10;;;3.40;;
4652;SDS011;9900;48.738;9.306;2023-03-30T08:05:31;13.10;;;3.63;;
4652;SDS011;9900;48.738;9.306;2023-03-30T08:08:00;15.37;;;4.00;;
4652;SDS011;9900;48.738;9.306;2023-03-30T08:10:28;11.50;;;4.13;;
4652;SDS011;9900;48.738;9.306;2023-03-30T08:12:57;18.30;;;4.00;;
4652;SDS011;9900;48.738;9.306;2023-03-30T08:15:27;6.87;;;3.73;;
4652;SDS011;9900;48.738;9.306;2023-03-30T08:17:56;18.33;;;4.67;;
4652;SDS011;9900;48.738;9.306;2023-03-30T08:20:25;17.97;;;3.83;;
4652;SDS011;9900;48.738;9.306;2023-03-30T08:22:53;12.90;;;4.40;;
4652;SDS011;9900;48.738;9.306;2023-03-30T08:25:22;11.63;;;3.83;;
4652;SDS011;9900;48.738;9.306;2023-03-30T08:27:51;15.67;;;3.73;;
4652;SDS011;9900;48.738;9.306;2023-03-30T08:30:20;24.37;;;4.83;;
4652;SDS011;9900;48.738;9.306;2023-03-30T08:32:50;11.90;;;3.80;;
4652;SDS011;9900;48.738;9.306;2023-03-30T08:35:19;16.57;;;5.20;;
4652;SDS011;9900;48.738;9.306;2023-03-30T08:37:48;8.90;;;3.60;;
4652;SDS011;9900;48.738;9.306;2023-03-30T08:40:17;16.53;;;4.93;;
4652;SDS011;9900;48.738;9.306;2023-03-30T08:42:49;11.50;;;3.60;;
4652;SDS011;9900;48.738;9.306;2023-03-30T08:45:30;8.03;;;3.30;;
4652;SDS011;9900;48.738;9.306;2023-03-30T08:48:03;10.77;;;3.43;;
4652;SDS011;9900;48.738;9.306;2023-03-30T08:50:34;11.70;;;3.40;;
4652;SDS011;9900;48.738;9.306;2023-03-30T08:53:04;11.63;;;4.17;;
4652;SDS011;9900;48.738;9.306;2023-03-30T08:55:36;13.07;;;3.77;;
4652;SDS011;9900;48.738;9.306;2023-03-30T08:58:08;15.43;;;4.40;;
4652;SDS011;9900;48.738;9.306;2023-03-30T09:00:41;15.07;;;3.97;;
4652;SDS011;9900;48.738;9.306;2023-03-30T09:03:17;12.10;;;3.80;;
4652;SDS011;9900;48.738;9.306;2023-03-30T09:05:48;12.13;;;3.77;;
4652;SDS011;9900;48.738;9.306;2023-03-30T09:08:19;15.10;;;4.53;;
4652;SDS011;9900;48.738;9.306;2023-03-30T09:10:51;14.80;;;4.73;;
4652;SDS011;9900;48.738;9.306;2023-03-30T09:13:21;9.67;;;3.73;;
4652;SDS011;9900;48.738;9.306;2023-03-30T09:15:52;8.93;;;3.40;;
4652;SDS011;9900;48.738;9.306;2023-03-30T09:18:26;7.87;;;3.50;;
4652;SDS011;9900;48.738;9.306;2023-03-30T09:20:58;11.00;;;3.33;;
4652;SDS011;9900;48.738;9.306;2023-03-30T09:23:29;9.87;;;4.10;;
4652;SDS011;9900;48.738;9.306;2023-03-30T09:26:01;8.20;;;3.13;;
4652;SDS011;9900;48.738;9.306;2023-03-30T09:28:37;15.50;;;3.17;;
4652;SDS011;9900;48.738;9.306;2023-03-30T09:31:13;20.40;;;3.50;;
4652;SDS011;9900;48.738;9.306;2023-03-30T09:33:52;12.33;;;3.20;;
4652;SDS011;9900;48.738;9.306;2023-03-30T09:36:24;8.87;;;3.30;;
4652;SDS011;9900;48.738;9.306;2023-03-30T09:38:54;11.80;;;2.97;;
4652;SDS011;9900;48.738;9.306;2023-03-30T09:41:27;11.83;;;3.13;;
4652;SDS011;9900;48.738;9.306;2023-03-30T09:44:02;5.43;;;3.00;;
4652;SDS011;9900;48.738;9.306;2023-03-30T09:46:31;8.40;;;2.90;;
4652;SDS011;9900;48.738;9.306;2023-03-30T09:49:12;10.03;;;3.20;;
4652;SDS011;9900;48.738;9.306;2023-03-30T09:51:51;8.43;;;2.07;;
4652;SDS011;9900;48.738;9.306;2023-03-30T09:54:21;7.60;;;2.67;;
4652;SDS011;9900;48.738;9.306;2023-03-30T09:56:50;5.77;;;2.60;;
4652;SDS011;9900;48.738;9.306;2023-03-30T09:59:30;4.27;;;1.70;;
4652;SDS011;9900;48.738;9.306;2023-03-30T10:02:09;5.73;;;2.20;;
4652;SDS011;9900;48.738;9.306;2023-03-30T10:04:56;5.13;;;2.13;;
4652;SDS011;9900;48.738;9.306;2023-03-30T10:07:30;4.83;;;1.93;;
4652;SDS011;9900;48.738;9.306;2023-03-30T10:10:01;2.73;;;1.80;;
4652;SDS011;9900;48.738;9.306;2023-03-30T10:12:40;5.10;;;1.93;;
4652;SDS011;9900;48.738;9.306;2023-03-30T10:15:13;6.90;;;2.20;;
4652;SDS011;9900;48.738;9.306;2023-03-30T10:17:43;6.37;;;2.20;;
4652;SDS011;9900;48.738;9.306;2023-03-30T10:20:22;5.70;;;2.03;;
4652;SDS011;9900;48.738;9.306;2023-03-30T10:22:53;5.43;;;2.10;;
4652;SDS011;9900;48.738;9.306;2023-03-30T10:25:23;2.97;;;1.80;;
4652;SDS011;9900;48.738;9.306;2023-03-30T10:27:55;5.33;;;2.07;;
4652;SDS011;9900;48.738;9.306;2023-03-30T10:30:25;3.73;;;2.23;;
4652;SDS011;9900;48.738;9.306;2023-03-30T10:32:55;5.73;;;2.00;;
4652;SDS011;9900;48.738;9.306;2023-03-30T10:35:27;6.80;;;2.33;;
4652;SDS011;9900;48.738;9.306;2023-03-30T10:38:01;3.87;;;2.27;;
4652;SDS011;9900;48.738;9.306;2023-03-30T10:40:32;4.10;;;2.07;;
4652;SDS011;9900;48.738;9.306;2023-03-30T10:43:05;6.10;;;2.57;;
4652;SDS011;9900;48.738;9.306;2023-03-30T10:45:35;5.43;;;2.53;;
4652;SDS011;9900;48.738;9.306;2023-03-30T10:48:11;2.87;;;2.10;;
4652;SDS011;9900;48.738;9.306;2023-03-30T10:51:01;6.87;;;2.53;;
4652;SDS011;9900;48.738;9.306;2023-03-30T10:53:38;4.97;;;2.43;;
4652;SDS011;9900;48.738;9.306;2023-03-30T10:56:14;8.27;;;2.77;;
4652;SDS011;9900;48.738;9.306;2023-03-30T10:58:49;4.03;;;2.40;;
4652;SDS011;9900;48.738;9.306;2023-03-30T11:01:26;8.97;;;2.43;;
4652;SDS011;9900;48.738;9.306;2023-03-30T11:04:01;6.57;;;2.30;;
4652;SDS011;9900;48.738;9.306;2023-03-30T11:06:51;7.63;;;2.30;;
4652;SDS011;9900;48.738;9.306;2023-03-30T11:09:21;4.17;;;2.33;;
4652;SDS011;9900;48.738;9.306;2023-03-30T11:11:53;3.30;;;2.20;;
4652;SDS011;9900;48.738;9.306;2023-03-30T11:14:24;5.53;;;2.63;;
4652;SDS011;9900;48.738;9.306;2023-03-30T11:17:05;6.47;;;2.73;;
4652;SDS011;9900;48.738;9.306;2023-03-30T11:19:37;8.50;;;2.70;;
4652;SDS011;9900;48.738;9.306;2023-03-30T11:22:11;3.13;;;2.07;;
4652;SDS011;9900;48.738;9.306;2023-03-30T11:24:43;7.40;;;2.40;;
4652;SDS011;9900;48.738;9.306;2023-03-30T11:27:14;8.40;;;2.20;;
4652;SDS011;9900;48.738;9.306;2023-03-30T11:29:45;6.13;;;2.50;;
4652;SDS011;9900;48.738;9.306;2023-03-30T11:32:19;18.03;;;2.93;;
4652;SDS011;9900;48.738;9.306;2023-03-30T11:34:54;5.20;;;2.20;;
4652;SDS011;9900;48.738;9.306;2023-03-30T11:37:29;6.90;;;2.90;;
4652;SDS011;9900;48.738;9.306;2023-03-30T11:40:03;6.60;;;2.30;;
4652;SDS011;9900;48.738;9.306;2023-03-30T11:42:41;5.93;;;2.37;;
4652;SDS011;9900;48.738;9.306;2023-03-30T11:45:15;6.80;;;2.50;;
4652;SDS011;9900;48.738;9.306;2023-03-30T11:47:50;8.90;;;2.93;;
4652;SDS011;9900;48.738;9.306;2023-03-30T11:50:31;11.00;;;3.07;;
4652;SDS011;9900;48.738;9.306;2023-03-30T11:53:11;6.67;;;2.80;;
4652;SDS011;9900;48.738;9.306;2023-03-30T11:55:46;9.23;;;2.77;;
4652;SDS011;9900;48.738;9.306;2023-03-30T11:58:24;3.57;;;2.33;;
4652;SDS011;9900;48.738;9.306;2023-03-30T12:00:59;6.50;;;2.37;;
4652;SDS011;9900;48.738;9.306;2023-03-30T12:03:37;10.67;;;3.00;;
4652;SDS011;9900;48.738;9.306;2023-03-30T12:06:15;8.63;;;2.70;;
4652;SDS011;9900;48.738;9.306;2023-03-30T12:08:57;11.60;;;2.60;;
4652;SDS011;9900;48.738;9.306;2023-03-30T12:11:32;8.03;;;2.20;;
4652;SDS011;9900;48.738;9.306;2023-03-30T12:14:05;4.20;;;2.47;;
4652;SDS011;9900;48.738;9.306;2023-03-30T12:16:42;12.70;;;2.77;;
4652;SDS011;9900;48.738;9.306;2023-03-30T12:19:14;8.07;;;3.03;;
4652;SDS011;9900;48.738;9.306;2023-03-30T12:21:49;6.30;;;2.93;;
4652;SDS011;9900;48.738;9.306;2023-03-30T12:24:22;11.30;;;3.10;;
4652;SDS011;9900;48.738;9.306;2023-03-30T12:26:53;10.97;;;2.60;;
4652;SDS011;9900;48.738;9.306;2023-03-30T12:29:43;6.13;;;2.93;;
4652;SDS011;9900;48.738;9.306;2023-03-30T12:32:20;6.70;;;3.07;;
4652;SDS011;9900;48.738;9.306;2023-03-30T12:34:55;6.00;;;2.53;;
4652;SDS011;9900;48.738;9.306;2023-03-30T12:37:26;8.63;;;2.90;;
4652;SDS011;9900;48.738;9.306;2023-03-30T12:39:57;10.17;;;2.87;;
4652;SDS011;9900;48.738;9.306;2023-03-30T12:42:32;7.60;;;2.90;;
4652;SDS011;9900;48.738;9.306;2023-03-30T12:47:56;7.07;;;3.10;;
4652;SDS011;9900;48.738;9.306;2023-03-30T12:50:50;9.93;;;3.13;;
4652;SDS011;9900;48.738;9.306;2023-03-30T12:56:26;9.70;;;3.27;;
4652;SDS011;9900;48.738;9.306;2023-03-30T12:59:07;4.20;;;2.40;;
4652;SDS011;9900;48.738;9.306;2023-03-30T13:01:50;5.43;;;2.27;;
4652;SDS011;9900;48.738;9.306;2023-03-30T13:04:48;13.23;;;3.53;;
4652;SDS011;9900;48.738;9.306;2023-03-30T13:07:19;5.13;;;2.30;;
4652;SDS011;9900;48.738;9.306;2023-03-30T13:09:50;6.83;;;2.40;;
4652;SDS011;9900;48.738;9.306;2023-03-30T13:12:32;7.83;;;2.50;;
4652;SDS011;9900;48.738;9.306;2023-03-30T13:15:18;10.77;;;2.80;;
4652;SDS011;9900;48.738;9.306;2023-03-30T13:18:03;7.73;;;3.10;;
4652;SDS011;9900;48.738;9.306;2023-03-30T13:24:01;5.17;;;2.10;;
4652;SDS011;9900;48.738;9.306;2023-03-30T13:26:49;6.20;;;2.63;;
4652;SDS011;9900;48.738;9.306;2023-03-30T13:29:19;3.83;;;2.10;;
4652;SDS011;9900;48.738;9.306;2023-03-30T13:31:51;8.40;;;2.50;;
4652;SDS011;9900;48.738;9.306;2023-03-30T13:34:42;5.00;;;2.90;;
4652;SDS011;9900;48.738;9.306;2023-03-30T13:37:36;4.40;;;2.13;;
4652;SDS011;9900;48.738;9.306;2023-03-30T13:40:14;9.10;;;2.50;;
4652;SDS011;9900;48.738;9.306;2023-03-30T13:43:02;5.53;;;1.77;;
4652;SDS011;9900;48.738;9.306;2023-03-30T13:45:37;5.03;;;1.90;;
4652;SDS011;9900;48.738;9.306;2023-03-30T13:48:18;10.13;;;2.60;;
4652;SDS011;9900;48.738;9.306;2023-03-30T13:50:53;6.50;;;2.20;;
4652;SDS011;9900;48.738;9.306;2023-03-30T13:53:24;9.00;;;2.63;;
4652;SDS011;9900;48.738;9.306;2023-03-30T13:55:55;6.10;;;2.50;;
4652;SDS011;9900;48.738;9.306;2023-03-30T13:58:25;5.67;;;2.00;;
4652;SDS011;9900;48.738;9.306;2023-03-30T14:00:58;10.17;;;2.33;;
4652;SDS011;9900;48.738;9.306;2023-03-30T14:03:28;5.27;;;2.03;;
4652;SDS011;9900;48.738;9.306;2023-03-30T14:06:00;8.03;;;1.87;;
4652;SDS011;9900;48.738;9.306;2023-03-30T14:08:32;8.20;;;2.10;;
4652;SDS011;9900;48.738;9.306;2023-03-30T14:11:03;6.60;;;2.47;;
4652;SDS011;9900;48.738;9.306;2023-03-30T14:13:39;5.77;;;1.77;;
4652;SDS011;9900;48.738;9.306;2023-03-30T14:16:10;3.93;;;2.00;;
4652;SDS011;9900;48.738;9.306;2023-03-30T14:18:41;7.37;;;2.70;;
4652;SDS011;9900;48.738;9.306;2023-03-30T14:21:11;9.70;;;1.87;;
4652;SDS011;9900;48.738;9.306;2023-03-30T14:23:42;6.07;;;2.20;;
4652;SDS011;9900;48.738;9.306;2023-03-30T14:26:13;10.53;;;2.13;;
4652;SDS011;9900;48.738;9.306;2023-03-30T14:28:44;4.77;;;1.80;;
4652;SDS011;9900;48.738;9.306;2023-03-30T14:31:15;6.13;;;1.80;;
4652;SDS011;9900;48.738;9.306;2023-03-30T14:33:45;2.60;;;1.40;;
4652;SDS011;9900;48.738;9.306;2023-03-30T14:36:14;5.60;;;1.63;;
4652;SDS011;9900;48.738;9.306;2023-03-30T14:38:44;7.43;;;1.40;;
4652;SDS011;9900;48.738;9.306;2023-03-30T14:41:14;5.60;;;1.83;;
4652;SDS011;9900;48.738;9.306;2023-03-30T14:43:50;5.30;;;1.57;;
4652;SDS011;9900;48.738;9.306;2023-03-30T14:46:21;2.40;;;1.60;;
4652;SDS011;9900;48.738;9.306;2023-03-30T14:48:51;1.83;;;1.30;;
4652;SDS011;9900;48.738;9.306;2023-03-30T14:51:22;4.10;;;1.77;;
4652;SDS011;9900;48.738;9.306;2023-03-30T14:53:52;5.00;;;2.30;;
4652;SDS011;9900;48.738;9.306;2023-03-30T14:56:23;7.00;;;2.20;;
4652;SDS011;9900;48.738;9.306;2023-03-30T14:58:54;8.03;;;1.97;;
4652;SDS011;9900;48.738;9.306;2023-03-30T15:01:25;4.40;;;1.40;;
4652;SDS011;9900;48.738;9.306;2023-03-30T15:03:58;9.70;;;2.47;;
4652;SDS011;9900;48.738;9.306;2023-03-30T15:06:27;5.20;;;1.87;;
4652;SDS011;9900;48.738;9.306;2023-03-30T15:09:01;3.07;;;1.43;;
4652;SDS011;9900;48.738;9.306;2023-03-30T15:11:31;2.63;;;1.60;;
4652;SDS011;9900;48.738;9.306;2023-03-30T15:14:01;7.43;;;1.70;;
4652;SDS011;9900;48.738;9.306;2023-03-30T15:16:37;5.63;;;1.97;;
4652;SDS011;9900;48.738;9.306;2023-03-30T15:19:09;5.93;;;1.80;;
4652;SDS011;9900;48.738;9.306;2023-03-30T15:21:40;4.50;;;1.80;;
4652;SDS011;9900;48.738;9.306;2023-03-30T15:24:11;3.53;;;1.83;;
4652;SDS011;9900;48.738;9.306;2023-03-30T15:26:43;5.20;;;1.90;;
4652;SDS011;9900;48.738;9.306;2023-03-30T15:29:13;4.80;;;2.03;;
4652;SDS011;9900;48.738;9.306;2023-03-30T15:31:44;3.50;;;1.77;;
4652;SDS011;9900;48.738;9.306;2023-03-30T15:34:13;5.47;;;1.70;;
4652;SDS011;9900;48.738;9.306;2023-03-30T15:36:43;4.30;;;1.70;;
4652;SDS011;9900;48.738;9.306;2023-03-30T15:39:20;4.27;;;1.50;;
4652;SDS011;9900;48.738;9.306;2023-03-30T15:41:57;2.93;;;1.40;;
4652;SDS011;9900;48.738;9.306;2023-03-30T15:44:27;6.70;;;2.10;;
4652;SDS011;9900;48.738;9.306;2023-03-30T15:46:58;4.40;;;1.47;;
4652;SDS011;9900;48.738;9.306;2023-03-30T15:49:28;5.80;;;1.53;;